• Join FlightAware (Why Join?)
  • Login
  • US Flag 
11:06PM EST


 

Airport Tracker/Info


-or-


 

Live Flight TrackerFlight Track Log ✈ ASQ5875 ✈ 29-Jul-2013 ✈ KORD - KCLT

Flight Track Log - Related Links

Times and Time Zones

All times are in EDT time to prevent confusion due to time zone crossing. See the ASQ5875 flight status page for this flight to view local times or setup timezone preferences in your user account.

Time Position Orientation Groundspeed Altitude Reporting Facility
EDT Latitude Longitude Course Direction KTS MPH feet Rate Location/Type
10:13AM 41.9167 -87.9167 166° South 165 190 2,800  Level Chicago TRACON
10:14AM 41.8667 -87.9000 166° South 214 246 4,000 1,380 Climbing Chicago TRACON
10:15AM 41.8000 -87.9000 180° South 271 312 5,500 1,680 Climbing Chicago TRACON
10:16AM 41.7319 -87.8453 149° Southeast 305 351 7,500 1,800 Climbing Chicago Center
10:17AM 41.6617 -87.7814 146° Southeast 302 348 9,300 1,740 Climbing Chicago Center
10:18AM 41.5886 -87.7181 147° Southeast 315 362 11,100 1,500 Climbing Chicago Center
10:19AM 41.5136 -87.6511 146° Southeast 325 374 12,500 1,020 Climbing Chicago Center
10:20AM 41.4314 -87.5803 147° Southeast 347 399 13,300 780 Climbing Chicago Center
10:21AM 41.3417 -87.5047 148° Southeast 376 433 14,200 960 Climbing Chicago Center
10:22AM 41.2278 -87.4408 157° South 379 436 15,400 1,020 Climbing Chicago Center
10:23AM 41.1214 -87.3953 162° South 391 450 16,400 960 Climbing Chicago Center
10:24AM 41.0181 -87.3503 162° South 392 451 17,400 840 Climbing Chicago Center
10:25AM 40.9139 -87.3042 162° South 395 455 18,200 780 Climbing Chicago Center
10:26AM 40.8069 -87.2603 163° South 401 461 19,100 900 Climbing Chicago Center
10:27AM 40.6903 -87.2956 193° South 394 453 20,100 900 Climbing Chicago Center
10:28AM 40.5797 -87.3111 186° South 406 467 21,000 780 Climbing Chicago Center
10:29AM 40.4714 -87.2439 155° Southeast 434 499 21,800 840 Climbing Chicago Center
10:31AM 40.3433 -87.1531 152° Southeast 438 504 22,800 840 Climbing Chicago Center
10:32AM 40.2369 -87.0775 152° Southeast 438 504 23,600 720 Climbing Chicago Center
10:33AM 40.1278 -87.0014 152° Southeast 443 510 24,400 900 Climbing Chicago Center
10:34AM 39.9975 -86.9097 152° Southeast 443 510 25,600 960 Climbing Indianapolis Center
10:35AM 39.8992 -86.8192 145° Southeast 440 506 26,500 900 Climbing Indianapolis Center
10:36AM 39.8239 -86.6947 128° Southeast 438 504 27,500 960 Climbing Indianapolis Center
10:37AM 39.7511 -86.5714 127° Southeast 435 501 28,500 900 Climbing Indianapolis Center
10:38AM 39.6639 -86.4264 128° Southeast 434 499 29,400 780 Climbing Indianapolis Center
10:39AM 39.5900 -86.3039 128° Southeast 442 509 30,200 780 Climbing Indianapolis Center
10:40AM 39.5150 -86.1778 128° Southeast 448 516 31,100 840 Climbing Indianapolis Center
10:41AM 39.4389 -86.0514 128° Southeast 450 518 32,000 840 Climbing Indianapolis Center
10:42AM 39.3456 -85.8983 128° Southeast 454 522 32,900 480 Climbing Indianapolis Center
10:43AM 39.2653 -85.7669 128° Southeast 464 534 33,000 420 Climbing Indianapolis Center
10:44AM 39.1817 -85.6308 128° Southeast 482 555 33,800 900 Climbing Indianapolis Center
10:45AM 39.0994 -85.4961 128° Southeast 481 554 34,900 540 Climbing Indianapolis Center
10:46AM 39.0175 -85.3631 128° Southeast 477 549 35,000  Climbing Indianapolis Center
10:47AM 38.9311 -85.2239 129° Southeast 493 567 35,000  Level Indianapolis Center
10:48AM 38.8228 -85.0519 129° Southeast 515 593 35,000  Level Indianapolis Center
10:49AM 38.7311 -84.9039 128° Southeast 530 610 35,000  Level Indianapolis Center
10:50AM 38.6394 -84.7581 129° Southeast 529 609 35,000  Level Indianapolis Center
10:51AM 38.5367 -84.5942 129° Southeast 528 608 35,000  Level Indianapolis Center
10:52AM 38.4444 -84.4519 130° Southeast 521 600 35,000  Level Indianapolis Center
10:53AM 38.3528 -84.3064 129° Southeast 523 602 35,000 -360 Level Indianapolis Center
10:54AM 38.2622 -84.1636 129° Southeast 519 597 34,300 -720 Descending Indianapolis Center
10:55AM 38.1722 -84.0225 129° Southeast 514 592 33,600 -660 Descending Indianapolis Center
10:56AM 38.0664 -83.8647 130° Southeast 501 577 33,000 -300 Descending Indianapolis Center
10:57AM 37.9756 -83.7206 129° Southeast 518 596 33,000  Level Indianapolis Center
10:59AM 37.8839 -83.5811 130° Southeast 513 590 33,000  Level Indianapolis Center
11:00AM 37.7914 -83.4444 131° Southeast 510 587 33,000  Level Indianapolis Center
11:01AM 37.6781 -83.3317 142° Southeast 519 597 33,000  Level Indianapolis Center
11:02AM 37.5667 -83.2233 142° Southeast 509 586 33,000 -180 Level Indianapolis Center
11:03AM 37.4369 -83.0956 142° Southeast 505 581 32,700 -540 Descending Indianapolis Center
11:04AM 37.3267 -82.9878 142° Southeast 501 577 31,900 -840 Descending Indianapolis Center
11:05AM 37.2175 -82.8806 142° Southeast 494 568 31,000 -780 Descending Indianapolis Center
11:06AM 37.1078 -82.7728 142° Southeast 494 568 30,300 -780 Descending Indianapolis Center
11:07AM 36.9956 -82.6642 142° Southeast 498 573 29,400 -660 Descending Indianapolis Center
11:08AM 36.8842 -82.5606 143° Southeast 492 566 29,000 -300 Descending Indianapolis Center
11:09AM 36.7686 -82.4708 148° Southeast 487 560 28,800 -540 Descending Indianapolis Center
11:10AM 36.6536 -82.3828 148° Southeast 483 556 27,900 -1,020 Descending Indianapolis Center
11:11AM 36.5317 -82.2897 148° Southeast 480 552 26,900 -1,140 Descending Atlanta Center
11:12AM 36.4158 -82.2019 149° Southeast 486 559 25,800 -960 Descending Atlanta Center
11:13AM 36.2997 -82.1144 149° Southeast 486 559 25,000 -720 Descending Atlanta Center
11:14AM 36.2025 -82.0419 149° Southeast 471 542 24,400 -1,200 Descending Atlanta Center
11:15AM 36.1033 -81.9597 146° Southeast 449 517 22,600 -2,340 Descending Atlanta Center
11:16AM 36.0039 -81.8878 150° Southeast 421 484 19,800 -2,760 Descending Atlanta Center
11:17AM 35.9108 -81.8158 148° Southeast 408 470 17,100 -2,820 Descending Atlanta Center
11:18AM 35.8136 -81.7417 148° Southeast 385 443 14,300 -2,280 Descending Atlanta Center
11:19AM 35.7331 -81.6825 149° Southeast 379 436 12,600 -1,140 Descending Atlanta Center
11:20AM 35.6569 -81.6261 149° Southeast 337 388 12,000 -300 Descending Atlanta Center
11:21AM 35.5889 -81.5617 142° Southeast 315 362 12,000  Level Atlanta Center
11:22AM 35.5331 -81.4767 129° Southeast 310 357 12,000 -300 Level Atlanta Center
11:23AM 35.4769 -81.3942 130° Southeast 315 362 11,500 -840 Descending Atlanta Center
11:24AM 35.4036 -81.2794 128° Southeast 314 361 10,200 -1,020 Descending Atlanta Center
11:25AM 35.3606 -81.2222 133° Southeast 321 369 9,500 -720 Descending Atlanta Center
11:26AM 35.3086 -81.1450 129° Southeast 311 358 9,000 -300 Descending Atlanta Center
11:27AM 35.2611 -81.0806 132° Southeast 279 321 9,000 -300 Level Atlanta Center
11:28AM 35.1711 -81.0686 174° South 230 265 8,300 -960 Descending Atlanta Center
11:29AM 35.1106 -81.0631 176° South 236 272 6,900 -1,440 Descending Atlanta Center
11:30AM 35.0436 -81.0578 176° South 237 273 5,600 -1,320 Descending Atlanta Center
11:31AM 35.0047 -81.0008 130° Southeast 234 269 4,200 -1,080 Descending Atlanta Center
11:32AM 35.0453 -80.9539 43° Northeast 217 250 3,200 -720 Descending Atlanta Center
11:33AM 35.0933 -80.9597 354° North 179 206 2,800 -720 Descending Atlanta Center
11:34AM 35.1456 -80.9653 355° North 159 183 1,800 -840 Descending Atlanta Center
11:35AM 35.1811 -80.9667 358° North 136 157 1,100 -780 Descending Atlanta Center